createdAt,value
2018-08-13T00:00:00.028Z,20.00
2018-08-13T00:00:34.115Z,20.00
2018-08-13T00:01:08.018Z,20.00
2018-08-13T00:01:41.849Z,20.00
2018-08-13T00:02:15.695Z,20.00
2018-08-13T00:02:49.582Z,20.00
2018-08-13T00:03:23.571Z,20.00
2018-08-13T00:03:57.299Z,20.00
2018-08-13T00:04:31.215Z,20.00
2018-08-13T00:05:05.284Z,20.00
2018-08-13T00:05:39.121Z,20.10
2018-08-13T00:06:12.896Z,20.10
2018-08-13T00:06:46.574Z,20.10
2018-08-13T00:07:20.220Z,20.10
2018-08-13T00:07:53.896Z,20.10
2018-08-13T00:08:27.712Z,20.10
2018-08-13T00:09:01.399Z,20.10
2018-08-13T00:09:41.838Z,20.20
2018-08-13T00:10:15.575Z,20.20
2018-08-13T00:10:49.315Z,20.20
2018-08-13T00:11:23.280Z,20.20
2018-08-13T00:11:56.975Z,20.20
2018-08-13T00:12:30.906Z,20.20
2018-08-13T00:13:05.557Z,20.20
2018-08-13T00:13:39.707Z,20.30
2018-08-13T00:14:13.626Z,20.20
2018-08-13T00:14:47.457Z,20.30
2018-08-13T00:15:21.309Z,20.30
2018-08-13T00:15:55.191Z,20.30
2018-08-13T00:16:29.272Z,20.30
2018-08-13T00:17:03.068Z,20.30
2018-08-13T00:17:36.840Z,20.30
2018-08-13T00:18:11.804Z,20.30
2018-08-13T00:18:45.626Z,20.30
2018-08-13T00:19:19.609Z,20.30
2018-08-13T00:19:53.270Z,20.30
2018-08-13T00:20:27.063Z,20.30
2018-08-13T00:21:00.915Z,20.30
2018-08-13T00:21:34.699Z,20.30
2018-08-13T00:22:08.643Z,20.20
2018-08-13T00:22:42.695Z,20.20
2018-08-13T00:23:16.531Z,20.20
2018-08-13T00:23:50.300Z,20.20
2018-08-13T00:24:24.131Z,20.20
2018-08-13T00:24:58.096Z,20.20
2018-08-13T00:25:32.121Z,20.20
2018-08-13T00:26:05.962Z,20.20
2018-08-13T00:26:40.076Z,20.20
2018-08-13T00:27:14.050Z,20.20
2018-08-13T00:27:48.211Z,20.20
2018-08-13T00:28:22.100Z,20.20
2018-08-13T00:28:55.971Z,20.20
2018-08-13T00:29:29.843Z,20.10
2018-08-13T00:30:04.087Z,20.10
2018-08-13T00:30:38.283Z,20.10
2018-08-13T00:31:12.263Z,20.10
2018-08-13T00:31:46.117Z,20.10
2018-08-13T00:32:20.086Z,20.10
2018-08-13T00:32:53.918Z,20.10
2018-08-13T00:33:27.836Z,20.10
2018-08-13T00:34:01.676Z,20.00
2018-08-13T00:34:35.372Z,20.00
2018-08-13T00:35:09.244Z,20.00
2018-08-13T00:35:43.104Z,20.00
2018-08-13T00:36:17.141Z,20.00
2018-08-13T00:36:50.950Z,20.00
2018-08-13T00:37:24.690Z,20.00
2018-08-13T00:38:00.617Z,20.00
2018-08-13T00:38:34.302Z,20.00
2018-08-13T00:39:09.995Z,20.00
2018-08-13T00:39:43.752Z,20.00
2018-08-13T00:40:17.753Z,20.00
2018-08-13T00:40:51.659Z,20.00
2018-08-13T00:41:25.568Z,19.90
2018-08-13T00:41:59.564Z,19.90
2018-08-13T00:42:33.379Z,19.90
2018-08-13T00:43:07.427Z,19.90
2018-08-13T00:43:41.461Z,19.90
2018-08-13T00:44:15.992Z,19.90
2018-08-13T00:44:49.860Z,19.90
2018-08-13T00:45:23.977Z,19.90
2018-08-13T00:45:57.863Z,19.90
2018-08-13T00:46:31.963Z,19.90
2018-08-13T00:47:06.058Z,19.90
2018-08-13T00:47:40.455Z,19.90
2018-08-13T00:48:14.317Z,19.90
2018-08-13T00:48:48.302Z,19.90
2018-08-13T00:49:22.207Z,19.90
2018-08-13T00:49:56.121Z,19.90
2018-08-13T00:50:30.020Z,19.90
2018-08-13T00:51:03.842Z,19.90
2018-08-13T00:51:37.603Z,19.90
2018-08-13T00:52:11.380Z,19.90
2018-08-13T00:52:45.318Z,19.90
2018-08-13T00:53:19.191Z,19.90
2018-08-13T00:53:53.051Z,19.90
2018-08-13T00:54:26.879Z,19.90
2018-08-13T00:55:00.725Z,19.90
2018-08-13T00:55:34.370Z,19.80
2018-08-13T00:56:08.267Z,19.90
2018-08-13T00:56:42.195Z,19.90
2018-08-13T00:57:16.319Z,19.90
2018-08-13T00:57:50.059Z,19.90
2018-08-13T00:58:23.951Z,19.90
2018-08-13T00:58:57.782Z,19.90
2018-08-13T00:59:31.568Z,19.90
2018-08-13T01:00:09.256Z,19.90
2018-08-13T01:00:43.086Z,19.90
2018-08-13T01:01:17.604Z,19.90
2018-08-13T01:01:51.419Z,19.90
2018-08-13T01:02:25.331Z,19.90
2018-08-13T01:02:59.100Z,19.80
2018-08-13T01:03:33.033Z,19.80
2018-08-13T01:04:06.944Z,19.80
2018-08-13T01:04:40.831Z,19.80
2018-08-13T01:05:15.868Z,19.80
2018-08-13T01:05:49.717Z,19.80
2018-08-13T01:06:23.474Z,19.80
2018-08-13T01:06:57.420Z,19.80
2018-08-13T01:07:31.450Z,19.80
2018-08-13T01:08:05.387Z,19.80
2018-08-13T01:08:39.155Z,19.80
2018-08-13T01:09:12.828Z,19.80
2018-08-13T01:09:47.156Z,19.70
2018-08-13T01:10:21.892Z,19.80
2018-08-13T01:10:55.759Z,19.80
2018-08-13T01:11:29.696Z,19.80
2018-08-13T01:12:03.641Z,19.80
2018-08-13T01:12:37.667Z,19.80
2018-08-13T01:13:11.731Z,19.80
2018-08-13T01:13:45.601Z,19.80
2018-08-13T01:14:19.441Z,19.70
2018-08-13T01:14:53.520Z,19.70
2018-08-13T01:15:27.316Z,19.70
2018-08-13T01:16:01.093Z,19.70
2018-08-13T01:16:35.040Z,19.70
2018-08-13T01:17:08.900Z,19.70
2018-08-13T01:17:44.437Z,19.70
2018-08-13T01:18:18.664Z,19.70
2018-08-13T01:18:52.481Z,19.70
2018-08-13T01:19:26.521Z,19.70
2018-08-13T01:20:00.443Z,19.70
2018-08-13T01:20:34.356Z,19.70
2018-08-13T01:21:08.245Z,19.70
2018-08-13T01:21:42.194Z,19.70
2018-08-13T01:22:15.889Z,19.70
2018-08-13T01:22:49.705Z,19.70
2018-08-13T01:23:24.035Z,19.70
2018-08-13T01:23:57.807Z,19.70
2018-08-13T01:24:31.745Z,19.70
2018-08-13T01:25:07.313Z,19.70
2018-08-13T01:25:41.806Z,19.70
2018-08-13T01:26:15.738Z,19.70
2018-08-13T01:26:49.710Z,19.70
2018-08-13T01:27:29.207Z,19.70
2018-08-13T01:28:03.056Z,19.70
2018-08-13T01:28:36.836Z,19.70
2018-08-13T01:29:10.826Z,19.70
2018-08-13T01:29:44.630Z,19.70
2018-08-13T01:30:18.924Z,19.60
2018-08-13T01:30:52.861Z,19.70
2018-08-13T01:31:27.044Z,19.70
2018-08-13T01:32:00.693Z,19.70
2018-08-13T01:32:34.400Z,19.70
2018-08-13T01:33:08.192Z,19.60
2018-08-13T01:33:41.952Z,19.70
2018-08-13T01:34:15.954Z,19.60
2018-08-13T01:34:49.994Z,19.70
2018-08-13T01:35:23.885Z,19.60
2018-08-13T01:35:57.871Z,19.60
2018-08-13T01:36:31.867Z,19.60
2018-08-13T01:37:05.780Z,19.60
2018-08-13T01:37:39.559Z,19.60
2018-08-13T01:38:13.394Z,19.60
2018-08-13T01:38:47.145Z,19.60
2018-08-13T01:39:20.944Z,19.60
2018-08-13T01:39:55.551Z,19.60
2018-08-13T01:40:29.352Z,19.60
2018-08-13T01:41:03.105Z,19.60
2018-08-13T01:41:37.645Z,19.60
2018-08-13T01:42:11.383Z,19.60
2018-08-13T01:42:45.333Z,19.50
2018-08-13T01:43:19.184Z,19.60
2018-08-13T01:43:53.119Z,19.60
2018-08-13T01:44:27.007Z,19.60
2018-08-13T01:45:01.081Z,19.60
2018-08-13T01:45:34.768Z,19.50
2018-08-13T01:46:08.617Z,19.60
2018-08-13T01:46:42.776Z,19.60
2018-08-13T01:47:16.899Z,19.60
2018-08-13T01:47:50.739Z,19.60
2018-08-13T01:48:24.798Z,19.60
2018-08-13T01:48:58.711Z,19.60
2018-08-13T01:49:32.665Z,19.60
2018-08-13T01:50:08.311Z,19.60
2018-08-13T01:50:42.067Z,19.60
2018-08-13T01:51:15.925Z,19.60
2018-08-13T01:51:50.239Z,19.60
2018-08-13T01:52:24.145Z,19.60
2018-08-13T01:52:58.193Z,19.60
2018-08-13T01:53:32.046Z,19.60
2018-08-13T01:54:06.058Z,19.60
2018-08-13T01:54:39.980Z,19.60
2018-08-13T01:55:13.987Z,19.60
2018-08-13T01:55:47.754Z,19.70
2018-08-13T01:56:21.487Z,19.60
2018-08-13T01:56:55.507Z,19.60
2018-08-13T01:57:29.492Z,19.70
2018-08-13T01:58:03.548Z,19.70
2018-08-13T01:58:37.579Z,19.70
2018-08-13T01:59:11.196Z,19.70
2018-08-13T01:59:45.088Z,19.70
2018-08-13T02:00:18.920Z,19.70
2018-08-13T02:00:52.926Z,19.70
2018-08-13T02:01:26.909Z,19.70
2018-08-13T02:02:00.650Z,19.70
2018-08-13T02:02:34.453Z,19.80
2018-08-13T02:03:08.205Z,19.80
2018-08-13T02:03:42.079Z,19.80
2018-08-13T02:04:15.883Z,19.80
2018-08-13T02:04:49.763Z,19.80
2018-08-13T02:05:23.575Z,19.80
2018-08-13T02:05:57.575Z,19.80
2018-08-13T02:06:31.566Z,19.80
2018-08-13T02:07:05.663Z,19.80
2018-08-13T02:07:39.546Z,19.80
2018-08-13T02:08:13.349Z,19.80
2018-08-13T02:08:47.183Z,19.80
2018-08-13T02:09:21.193Z,19.80
2018-08-13T02:09:55.151Z,19.90
2018-08-13T02:10:29.031Z,19.90
2018-08-13T02:11:03.103Z,19.90
2018-08-13T02:11:37.139Z,19.90
2018-08-13T02:12:11.089Z,19.90
2018-08-13T02:12:44.809Z,20.00
2018-08-13T02:13:18.792Z,19.90
2018-08-13T02:13:52.584Z,20.00
2018-08-13T02:14:26.696Z,20.00
2018-08-13T02:15:00.709Z,20.00
2018-08-13T02:15:34.693Z,20.00
2018-08-13T02:16:08.748Z,20.00
2018-08-13T02:16:42.431Z,20.00
2018-08-13T02:17:16.379Z,20.00
2018-08-13T02:17:50.079Z,20.00
2018-08-13T02:18:23.898Z,20.00
2018-08-13T02:18:57.904Z,20.00
2018-08-13T02:19:32.186Z,20.00
2018-08-13T02:20:07.482Z,20.10
2018-08-13T02:20:41.077Z,20.00
2018-08-13T02:21:14.947Z,20.00
2018-08-13T02:21:48.760Z,20.00
2018-08-13T02:22:22.554Z,20.00
2018-08-13T02:22:56.260Z,20.10
2018-08-13T02:23:30.227Z,20.10
2018-08-13T02:24:04.227Z,20.10
2018-08-13T02:24:38.021Z,20.10
2018-08-13T02:25:11.827Z,20.10
2018-08-13T02:25:45.913Z,20.10
2018-08-13T02:26:19.780Z,20.10
2018-08-13T02:26:54.436Z,20.10
2018-08-13T02:27:28.134Z,20.10
2018-08-13T02:28:02.032Z,20.10
2018-08-13T02:28:35.911Z,20.10
2018-08-13T02:29:09.735Z,20.10
2018-08-13T02:29:43.592Z,20.10
2018-08-13T02:30:17.483Z,20.10
2018-08-13T02:30:51.352Z,20.10
2018-08-13T02:31:25.292Z,20.10
2018-08-13T02:31:59.096Z,20.10
2018-08-13T02:32:33.043Z,20.10
2018-08-13T02:33:06.914Z,20.10
2018-08-13T02:33:41.872Z,20.10
2018-08-13T02:34:15.732Z,20.10
2018-08-13T02:34:49.539Z,20.10
2018-08-13T02:35:23.272Z,20.10
2018-08-13T02:35:57.247Z,20.10
2018-08-13T02:36:31.197Z,20.10
2018-08-13T02:37:05.469Z,20.00
2018-08-13T02:37:39.762Z,20.00
2018-08-13T02:38:13.832Z,20.10
2018-08-13T02:38:48.309Z,20.10
2018-08-13T02:39:22.032Z,20.00
2018-08-13T02:39:55.895Z,20.00
2018-08-13T02:40:29.762Z,20.00
2018-08-13T02:41:03.800Z,20.00
2018-08-13T02:41:37.737Z,20.00
2018-08-13T02:42:11.620Z,20.00
2018-08-13T02:42:45.480Z,20.00
2018-08-13T02:43:19.296Z,20.00
2018-08-13T02:43:53.465Z,20.00
2018-08-13T02:44:27.259Z,20.00
2018-08-13T02:45:01.095Z,20.00
2018-08-13T02:45:34.993Z,20.00
2018-08-13T02:46:09.191Z,20.00
2018-08-13T02:46:42.941Z,20.00
2018-08-13T02:47:16.560Z,20.10
2018-08-13T02:47:50.260Z,20.10
2018-08-13T02:48:24.189Z,20.00
2018-08-13T02:48:58.015Z,20.00
2018-08-13T02:49:31.874Z,20.00
2018-08-13T02:50:07.925Z,20.00
2018-08-13T02:50:41.668Z,20.00
2018-08-13T02:51:15.396Z,20.00
2018-08-13T02:51:49.468Z,20.00
2018-08-13T02:52:23.142Z,20.00
2018-08-13T02:52:57.118Z,20.00
2018-08-13T02:53:31.272Z,19.90
2018-08-13T02:54:05.963Z,19.90
2018-08-13T02:54:39.977Z,20.00
2018-08-13T02:55:13.795Z,19.90
2018-08-13T02:55:47.784Z,20.00
2018-08-13T02:56:21.509Z,19.90
2018-08-13T02:56:55.296Z,19.90
2018-08-13T02:57:29.145Z,19.90
2018-08-13T02:58:03.245Z,19.90
2018-08-13T02:58:37.128Z,19.90
2018-08-13T02:59:11.131Z,19.90
2018-08-13T02:59:44.773Z,19.90
2018-08-13T03:00:18.604Z,19.90
2018-08-13T03:00:52.363Z,19.90
2018-08-13T03:01:26.375Z,20.00
2018-08-13T03:02:00.259Z,20.00
2018-08-13T03:02:34.313Z,20.00
2018-08-13T03:03:08.350Z,20.00
2018-08-13T03:03:43.108Z,20.00
2018-08-13T03:04:16.976Z,20.00
2018-08-13T03:04:50.917Z,20.00
2018-08-13T03:05:24.909Z,20.00
2018-08-13T03:05:58.725Z,20.00
2018-08-13T03:06:32.507Z,20.00
2018-08-13T03:07:06.185Z,20.00
2018-08-13T03:07:40.576Z,20.00
2018-08-13T03:08:14.364Z,20.10
2018-08-13T03:08:48.340Z,20.10
2018-08-13T03:09:22.256Z,20.10
2018-08-13T03:09:56.865Z,20.10
2018-08-13T03:10:30.594Z,20.10
2018-08-13T03:11:04.432Z,20.20
2018-08-13T03:11:38.457Z,20.10
2018-08-13T03:12:12.266Z,20.20
2018-08-13T03:12:46.128Z,20.10
2018-08-13T03:13:19.982Z,20.20
2018-08-13T03:13:53.673Z,20.20
2018-08-13T03:14:27.389Z,20.20
2018-08-13T03:15:01.291Z,20.20
2018-08-13T03:15:35.171Z,20.20
2018-08-13T03:16:09.047Z,20.20
2018-08-13T03:16:42.992Z,20.20
2018-08-13T03:17:30.288Z,20.20
2018-08-13T03:18:04.519Z,20.30
2018-08-13T03:18:38.907Z,20.30
2018-08-13T03:19:12.600Z,20.30
2018-08-13T03:19:46.344Z,20.30
2018-08-13T03:20:20.189Z,20.40
2018-08-13T03:20:54.000Z,20.30
2018-08-13T03:21:27.659Z,20.30
2018-08-13T03:22:01.624Z,20.30
2018-08-13T03:22:35.567Z,20.30
2018-08-13T03:23:09.480Z,20.30
2018-08-13T03:23:43.427Z,20.30
2018-08-13T03:24:17.333Z,20.30
2018-08-13T03:24:51.019Z,20.40
2018-08-13T03:25:25.044Z,20.40
2018-08-13T03:25:59.647Z,20.40
2018-08-13T03:26:33.586Z,20.40
2018-08-13T03:27:07.499Z,20.40
2018-08-13T03:27:41.471Z,20.40
2018-08-13T03:28:15.311Z,20.40
2018-08-13T03:28:49.198Z,20.40
2018-08-13T03:29:22.948Z,20.40
2018-08-13T03:29:58.107Z,20.30
2018-08-13T03:30:31.873Z,20.40
2018-08-13T03:31:05.999Z,20.40
2018-08-13T03:31:39.812Z,20.40
2018-08-13T03:32:13.600Z,20.40
2018-08-13T03:32:47.495Z,20.40
2018-08-13T03:33:21.341Z,20.40
2018-08-13T03:33:55.366Z,20.40
2018-08-13T03:34:29.033Z,20.40
2018-08-13T03:35:02.856Z,20.40
2018-08-13T03:35:36.512Z,20.40
2018-08-13T03:36:10.399Z,20.40
2018-08-13T03:36:44.548Z,20.40
2018-08-13T03:37:18.620Z,20.30
2018-08-13T03:37:52.527Z,20.40
2018-08-13T03:38:26.176Z,20.40
2018-08-13T03:39:00.015Z,20.40
2018-08-13T03:39:33.912Z,20.30
2018-08-13T03:40:10.120Z,20.40
2018-08-13T03:40:43.932Z,20.30
2018-08-13T03:41:17.806Z,20.30
2018-08-13T03:41:51.608Z,20.30
2018-08-13T03:42:25.345Z,20.30
2018-08-13T03:42:59.223Z,20.30
2018-08-13T03:43:32.883Z,20.30
2018-08-13T03:44:07.143Z,20.30
2018-08-13T03:44:40.984Z,20.30
2018-08-13T03:45:14.941Z,20.30
2018-08-13T03:45:48.816Z,20.30
2018-08-13T03:46:22.835Z,20.30
2018-08-13T03:46:56.639Z,20.30
2018-08-13T03:47:30.476Z,20.20
2018-08-13T03:48:05.047Z,20.20
2018-08-13T03:48:39.400Z,20.20
2018-08-13T03:49:13.451Z,20.20
2018-08-13T03:49:47.494Z,20.30
2018-08-13T03:50:21.095Z,20.30
2018-08-13T03:50:55.121Z,20.30
2018-08-13T03:51:29.927Z,20.30
2018-08-13T03:52:05.538Z,20.30
2018-08-13T03:52:39.835Z,20.30
2018-08-13T03:53:13.743Z,20.30
2018-08-13T03:53:47.488Z,20.30
2018-08-13T03:54:21.329Z,20.30
2018-08-13T03:54:55.052Z,20.30
2018-08-13T03:55:28.915Z,20.30
2018-08-13T03:56:02.824Z,20.20
2018-08-13T03:56:36.623Z,20.30
2018-08-13T03:57:10.650Z,20.30
2018-08-13T03:57:44.502Z,20.30
2018-08-13T03:58:18.387Z,20.30
2018-08-13T03:58:52.271Z,20.30
2018-08-13T03:59:26.064Z,20.30
2018-08-13T04:00:00.070Z,20.30
2018-08-13T04:00:33.898Z,20.30
2018-08-13T04:01:07.859Z,20.30
2018-08-13T04:01:41.651Z,20.30
2018-08-13T04:02:16.767Z,20.30
2018-08-13T04:02:50.412Z,20.30
2018-08-13T04:03:24.207Z,20.30
2018-08-13T04:03:58.148Z,20.20
2018-08-13T04:04:32.044Z,20.20
2018-08-13T04:05:06.348Z,20.20
2018-08-13T04:05:40.212Z,20.20
2018-08-13T04:06:14.179Z,20.20
2018-08-13T04:06:48.253Z,20.20
2018-08-13T04:07:22.087Z,20.20
2018-08-13T04:07:56.223Z,20.20
2018-08-13T04:08:29.951Z,20.20
2018-08-13T04:09:07.159Z,20.20
2018-08-13T04:09:42.927Z,20.20
2018-08-13T04:10:16.823Z,20.20
2018-08-13T04:10:50.781Z,20.10
2018-08-13T04:11:24.816Z,20.10
2018-08-13T04:11:58.544Z,20.10
2018-08-13T04:12:32.872Z,20.10
2018-08-13T04:13:07.049Z,20.10
2018-08-13T04:13:41.007Z,20.00
2018-08-13T04:14:15.081Z,20.00
2018-08-13T04:14:49.004Z,20.00
2018-08-13T04:15:22.920Z,20.00
2018-08-13T04:15:56.807Z,20.00
2018-08-13T04:16:30.708Z,20.00
2018-08-13T04:17:04.851Z,20.00
2018-08-13T04:17:38.613Z,20.00
2018-08-13T04:18:12.512Z,19.90
2018-08-13T04:18:46.285Z,19.90
2018-08-13T04:19:20.146Z,19.90
2018-08-13T04:19:54.072Z,19.90
2018-08-13T04:20:27.895Z,19.80
2018-08-13T04:21:01.831Z,19.80
2018-08-13T04:21:35.675Z,19.80
2018-08-13T04:22:09.569Z,19.80
2018-08-13T04:22:43.936Z,19.80
2018-08-13T04:23:17.951Z,19.70
2018-08-13T04:23:51.840Z,19.70
2018-08-13T04:24:25.687Z,19.70
2018-08-13T04:24:59.431Z,19.60
2018-08-13T04:25:33.174Z,19.50
2018-08-13T04:26:07.096Z,19.50
2018-08-13T04:26:40.820Z,19.50
2018-08-13T04:27:14.539Z,19.60
2018-08-13T04:27:48.370Z,19.50
2018-08-13T04:28:22.495Z,19.40
2018-08-13T04:28:56.255Z,19.40
2018-08-13T04:29:30.255Z,19.40
2018-08-13T04:30:07.627Z,19.40
2018-08-13T04:30:41.313Z,19.40
2018-08-13T04:31:15.164Z,19.40
2018-08-13T04:31:49.083Z,19.40
2018-08-13T04:32:23.135Z,19.40
2018-08-13T04:32:56.852Z,19.40
2018-08-13T04:33:30.663Z,19.30
2018-08-13T04:34:04.576Z,19.20
2018-08-13T04:34:38.476Z,19.30
2018-08-13T04:35:12.389Z,19.30
2018-08-13T04:35:46.202Z,19.30
2018-08-13T04:36:20.355Z,19.40
2018-08-13T04:36:54.453Z,19.40
2018-08-13T04:37:28.104Z,19.30
2018-08-13T04:38:01.983Z,19.30
2018-08-13T04:38:35.908Z,19.30
2018-08-13T04:39:12.189Z,19.30
2018-08-13T04:39:46.032Z,19.30
2018-08-13T04:40:19.801Z,19.20
2018-08-13T04:40:53.749Z,19.20
2018-08-13T04:41:27.559Z,19.20
2018-08-13T04:42:01.596Z,19.20
2018-08-13T04:42:35.432Z,19.30
2018-08-13T04:43:09.300Z,19.30
2018-08-13T04:43:44.783Z,19.20
2018-08-13T04:44:18.510Z,19.20
2018-08-13T04:44:52.321Z,19.20
2018-08-13T04:45:26.359Z,19.20
2018-08-13T04:46:00.296Z,19.20
2018-08-13T04:46:34.252Z,19.20
2018-08-13T04:47:08.232Z,19.30
2018-08-13T04:47:47.275Z,19.20
2018-08-13T04:48:21.309Z,19.20
2018-08-13T04:48:55.323Z,19.20
2018-08-13T04:49:29.109Z,19.20
2018-08-13T04:50:02.940Z,19.10
2018-08-13T04:50:36.752Z,19.10
2018-08-13T04:51:10.840Z,19.00
2018-08-13T04:51:44.818Z,18.90
2018-08-13T04:52:18.845Z,18.90
2018-08-13T04:52:52.762Z,18.90
2018-08-13T04:53:26.595Z,18.90
2018-08-13T04:54:00.355Z,18.90
2018-08-13T04:54:33.937Z,18.90
2018-08-13T04:55:09.156Z,19.00
2018-08-13T04:55:42.703Z,19.00
2018-08-13T04:56:16.585Z,19.00
2018-08-13T04:56:50.407Z,19.00
2018-08-13T04:57:24.405Z,19.00
2018-08-13T04:57:58.184Z,19.00
2018-08-13T04:58:31.792Z,19.00
2018-08-13T04:59:05.677Z,18.90
2018-08-13T04:59:39.443Z,18.90
2018-08-13T05:00:13.360Z,19.00
2018-08-13T05:00:47.152Z,19.00
2018-08-13T05:01:21.076Z,19.00
2018-08-13T05:01:55.075Z,19.00
2018-08-13T05:02:29.038Z,19.00
2018-08-13T05:03:02.936Z,19.00
2018-08-13T05:03:36.744Z,19.00
2018-08-13T05:04:10.448Z,19.00
2018-08-13T05:04:44.288Z,19.00
2018-08-13T05:05:17.975Z,19.00
2018-08-13T05:05:51.688Z,19.00
2018-08-13T05:06:25.685Z,19.00
2018-08-13T05:06:59.442Z,19.00
2018-08-13T05:07:33.313Z,19.00
2018-08-13T05:08:07.174Z,18.90
2018-08-13T05:08:40.997Z,18.80
2018-08-13T05:09:14.728Z,18.80
2018-08-13T05:09:48.484Z,18.90
2018-08-13T05:10:22.444Z,18.90
2018-08-13T05:10:56.334Z,18.90
2018-08-13T05:11:30.174Z,18.90
2018-08-13T05:12:04.012Z,19.00
2018-08-13T05:12:38.222Z,19.00
2018-08-13T05:13:11.945Z,19.00
2018-08-13T05:13:45.828Z,19.00
2018-08-13T05:14:19.719Z,19.00
2018-08-13T05:14:53.496Z,19.00
2018-08-13T05:15:27.362Z,19.10
2018-08-13T05:16:01.516Z,19.00
2018-08-13T05:16:35.428Z,19.00
2018-08-13T05:17:09.391Z,19.10
2018-08-13T05:17:43.414Z,19.00
2018-08-13T05:18:17.304Z,19.00
2018-08-13T05:18:51.060Z,18.90
2018-08-13T05:19:25.067Z,18.90
2018-08-13T05:19:59.039Z,18.90
2018-08-13T05:20:32.948Z,18.80
2018-08-13T05:21:07.104Z,18.70
2018-08-13T05:21:40.968Z,18.70
2018-08-13T05:22:14.948Z,18.70
2018-08-13T05:22:48.582Z,18.70
2018-08-13T05:23:22.347Z,18.70
2018-08-13T05:23:56.227Z,18.70
2018-08-13T05:24:30.527Z,18.80
2018-08-13T05:25:05.556Z,18.80
2018-08-13T05:25:39.364Z,18.90
2018-08-13T05:26:13.733Z,18.90
2018-08-13T05:26:47.394Z,18.90
2018-08-13T05:27:21.273Z,18.90
2018-08-13T05:27:55.207Z,18.90
2018-08-13T05:28:29.028Z,18.90
2018-08-13T05:29:02.975Z,18.90
2018-08-13T05:29:36.754Z,18.90
2018-08-13T05:30:11.847Z,18.90
2018-08-13T05:30:45.452Z,18.80
2018-08-13T05:31:19.747Z,18.80
2018-08-13T05:31:53.518Z,18.80
2018-08-13T05:32:27.456Z,18.90
2018-08-13T05:33:01.412Z,18.90
2018-08-13T05:33:35.282Z,18.90
2018-08-13T05:34:09.156Z,18.80
2018-08-13T05:34:43.024Z,18.80
2018-08-13T05:35:16.857Z,18.80
2018-08-13T05:35:50.847Z,18.80
2018-08-13T05:36:25.076Z,18.80
2018-08-13T05:36:59.001Z,18.70
2018-08-13T05:37:33.053Z,18.80
2018-08-13T05:38:06.884Z,18.80
2018-08-13T05:38:40.726Z,18.80
2018-08-13T05:39:14.614Z,18.80
2018-08-13T05:39:48.641Z,18.80
2018-08-13T05:40:22.766Z,18.70
2018-08-13T05:40:56.503Z,18.80
2018-08-13T05:41:30.505Z,18.80
2018-08-13T05:42:04.513Z,18.90
2018-08-13T05:42:38.777Z,18.90
2018-08-13T05:43:12.619Z,18.80
2018-08-13T05:43:46.551Z,18.90
2018-08-13T05:44:20.451Z,18.90
2018-08-13T05:44:54.199Z,18.90
2018-08-13T05:45:27.816Z,18.90
2018-08-13T05:46:01.859Z,18.80
2018-08-13T05:46:35.927Z,18.90
2018-08-13T05:47:09.776Z,18.90
2018-08-13T05:47:43.733Z,18.90
2018-08-13T05:48:17.596Z,18.90
2018-08-13T05:48:52.079Z,18.90
2018-08-13T05:49:25.868Z,18.80
2018-08-13T05:49:59.820Z,18.70
2018-08-13T05:50:33.991Z,18.70
2018-08-13T05:51:07.886Z,18.60
2018-08-13T05:51:41.839Z,18.70
2018-08-13T05:52:15.763Z,18.60
2018-08-13T05:52:49.653Z,18.70
2018-08-13T05:53:23.543Z,18.60
2018-08-13T05:53:57.307Z,18.60
2018-08-13T05:54:31.742Z,18.60
2018-08-13T05:55:06.393Z,18.60
2018-08-13T05:55:40.067Z,18.60
2018-08-13T05:56:13.935Z,18.60
2018-08-13T05:56:47.949Z,18.60
2018-08-13T05:57:21.850Z,18.50
2018-08-13T05:57:55.564Z,18.50
2018-08-13T05:58:29.416Z,18.40
2018-08-13T05:59:03.465Z,18.40
2018-08-13T05:59:37.535Z,18.40
2018-08-13T06:00:12.618Z,18.40
2018-08-13T06:00:46.419Z,18.40
2018-08-13T06:01:20.127Z,18.40
2018-08-13T06:01:54.224Z,18.40
2018-08-13T06:02:34.978Z,18.40
2018-08-13T06:03:08.988Z,18.40
2018-08-13T06:03:42.914Z,18.50
2018-08-13T06:04:16.861Z,18.40
2018-08-13T06:04:50.504Z,18.40
2018-08-13T06:05:24.343Z,18.40
2018-08-13T06:05:58.237Z,18.40
2018-08-13T06:06:32.067Z,18.40
2018-08-13T06:07:06.252Z,18.40
2018-08-13T06:07:41.871Z,18.40
2018-08-13T06:08:15.742Z,18.40
2018-08-13T06:08:49.748Z,18.40
2018-08-13T06:09:23.667Z,18.30
2018-08-13T06:09:57.556Z,18.30
2018-08-13T06:10:31.376Z,18.30
2018-08-13T06:11:05.314Z,18.20
2018-08-13T06:11:39.517Z,18.20
2018-08-13T06:12:13.300Z,18.20
2018-08-13T06:12:47.867Z,18.20
2018-08-13T06:13:21.567Z,18.20
2018-08-13T06:13:55.302Z,18.20
2018-08-13T06:14:29.086Z,18.10
2018-08-13T06:15:03.011Z,18.20
2018-08-13T06:15:36.924Z,18.10
2018-08-13T06:16:11.044Z,18.20
2018-08-13T06:16:44.779Z,18.10
2018-08-13T06:17:18.665Z,18.10
2018-08-13T06:17:52.362Z,18.10
2018-08-13T06:18:26.192Z,18.10
2018-08-13T06:19:00.060Z,18.10
2018-08-13T06:19:34.048Z,18.10
2018-08-13T06:20:09.501Z,18.10
2018-08-13T06:20:43.614Z,18.20
2018-08-13T06:21:17.622Z,18.20
2018-08-13T06:21:51.368Z,18.20
2018-08-13T06:22:25.157Z,18.20
2018-08-13T06:22:58.839Z,18.30
2018-08-13T06:23:32.976Z,18.30
2018-08-13T06:24:07.015Z,18.30
2018-08-13T06:24:41.080Z,18.30
2018-08-13T06:25:14.917Z,18.30
2018-08-13T06:25:48.765Z,18.30
2018-08-13T06:26:22.601Z,18.40
2018-08-13T06:26:56.507Z,18.40
2018-08-13T06:27:30.528Z,18.50
2018-08-13T06:28:04.445Z,18.40
2018-08-13T06:28:38.317Z,18.40
2018-08-13T06:29:12.338Z,18.40
2018-08-13T06:29:46.236Z,18.40
2018-08-13T06:30:19.920Z,18.30
2018-08-13T06:30:54.018Z,18.40
2018-08-13T06:31:27.771Z,18.30
2018-08-13T06:32:01.704Z,18.30
2018-08-13T06:32:35.480Z,18.30
2018-08-13T06:33:09.421Z,18.30
2018-08-13T06:33:43.282Z,18.30
2018-08-13T06:34:17.772Z,18.40
2018-08-13T06:34:51.572Z,18.30
2018-08-13T06:35:25.206Z,18.40
2018-08-13T06:35:59.165Z,18.40
2018-08-13T06:36:33.015Z,18.40
2018-08-13T06:37:06.977Z,18.40
2018-08-13T06:37:42.068Z,18.40
2018-08-13T06:38:15.975Z,18.40
2018-08-13T06:38:49.775Z,18.30
2018-08-13T06:39:24.223Z,18.40
2018-08-13T06:39:57.979Z,18.40
2018-08-13T06:40:31.719Z,18.40
2018-08-13T06:41:05.861Z,18.40
2018-08-13T06:41:39.864Z,18.50
2018-08-13T06:42:14.032Z,18.50
2018-08-13T06:42:47.950Z,18.60
2018-08-13T06:43:21.681Z,18.60
2018-08-13T06:43:55.925Z,18.70
2018-08-13T06:44:29.590Z,18.70
2018-08-13T06:45:04.117Z,18.70
2018-08-13T06:45:37.947Z,18.80
2018-08-13T06:46:12.072Z,18.80
2018-08-13T06:46:46.036Z,18.80
2018-08-13T06:47:19.989Z,18.80
2018-08-13T06:47:53.795Z,18.80
2018-08-13T06:48:27.647Z,18.80
2018-08-13T06:49:01.402Z,18.90
2018-08-13T06:49:35.277Z,18.90
2018-08-13T06:50:11.230Z,18.90
2018-08-13T06:50:45.000Z,18.90
2018-08-13T06:51:18.849Z,18.90
2018-08-13T06:51:52.607Z,18.90
2018-08-13T06:52:26.512Z,18.80
2018-08-13T06:53:00.340Z,18.80
2018-08-13T06:53:35.515Z,18.80
2018-08-13T06:54:09.230Z,18.80
2018-08-13T06:54:43.218Z,18.90
2018-08-13T06:55:17.135Z,19.00
2018-08-13T06:55:51.217Z,19.00
2018-08-13T06:56:24.988Z,19.00
2018-08-13T06:56:58.931Z,19.10
2018-08-13T06:57:32.764Z,19.10
2018-08-13T06:58:06.684Z,19.10
2018-08-13T06:58:40.541Z,19.20
2018-08-13T06:59:14.584Z,19.20
2018-08-13T06:59:48.424Z,19.30
2018-08-13T07:00:22.332Z,19.20
2018-08-13T07:00:56.176Z,19.20
2018-08-13T07:01:30.035Z,19.20
2018-08-13T07:02:03.903Z,19.30
2018-08-13T07:02:37.853Z,19.30
2018-08-13T07:03:11.625Z,19.40
2018-08-13T07:03:45.574Z,19.40
2018-08-13T07:04:19.227Z,19.40
2018-08-13T07:04:53.067Z,19.50
2018-08-13T07:05:26.871Z,19.50
2018-08-13T07:06:00.734Z,19.50
2018-08-13T07:06:34.567Z,19.50
2018-08-13T07:07:08.557Z,19.50
2018-08-13T07:07:42.547Z,19.50
2018-08-13T07:08:16.372Z,19.50
2018-08-13T07:08:50.205Z,19.50
2018-08-13T07:09:24.103Z,19.50
2018-08-13T07:09:58.140Z,19.40
2018-08-13T07:10:33.400Z,19.40
2018-08-13T07:11:07.175Z,19.50
2018-08-13T07:11:40.893Z,19.50
2018-08-13T07:12:14.754Z,19.50
2018-08-13T07:12:48.772Z,19.50
2018-08-13T07:13:23.255Z,19.60
2018-08-13T07:13:57.061Z,19.60
2018-08-13T07:14:31.029Z,19.60
2018-08-13T07:15:05.533Z,19.60
2018-08-13T07:15:39.729Z,19.60
2018-08-13T07:16:13.564Z,19.60
2018-08-13T07:16:48.056Z,19.60
2018-08-13T07:17:21.751Z,19.50
2018-08-13T07:17:55.485Z,19.50